No data was retrieved for https://query.yahooapis.com/v1/public/yql?q=select+%2A+from+weather.forecast+where+woeid%3D860853&format=xml&u=c



Visit our other weather sites:

Template documentation
and downloads

And another site



Nearby METAR Reports

   
EBAW - Antwerp
Updated: 03-12-2021 03:50
  
  
   Wind: SSW 3.6 m/s
Wind: SSW 3.6 m/s
Temperature: 1°C
Wind Chill: -3°C
Dew Point: 0°C
Humidity: 93%
Barometer: 1011 hPa
Visibility: More than 10 km
Cloud details: Overcast
EBAW 030250Z AUTO 21007KT 9999 // VV/// 01/00 Q1011
EBLG - Liège
Updated: 03-12-2021 03:50
Mist, Mostly Cloudy  
Mist, Mostly Cloudy  
   Wind: SW 5.7 m/s
Wind: SW 5.7 m/s
Temperature: 1°C
Wind Chill: -4°C
Dew Point: 0°C
Humidity: 93%
Barometer: 1012 hPa
Clouds: Mostly Cloudy
Visibility: 5 km
Cloud details: Partly Cloudy 400 ft,
Mostly Cloudy 3000 ft
EBLG 030250Z 22011KT 4500 BR SCT004 BKN030 01/00 Q1012 TEMPO 2500 BR BKN005
EBCV - Mons/Bergen
Updated: 03-12-2021 03:55
Partly Cloudy  
Partly Cloudy  
   Wind: SW 4.1 m/s
Wind: SW 4.1 m/s
Temperature: 1°C
Wind Chill: -3°C
Dew Point: -1°C
Humidity: 87%
Barometer: 1012 hPa
Clouds: Partly Cloudy
Visibility: More than 10 km
Cloud details: Partly Cloudy 17000 ft
EBCV 030255Z AUTO 23008KT 9999 SCT170/// 01/M01 Q1012 BLU
EHBK - Maastricht
Updated: 03-12-2021 03:55
Overcast  
Overcast  
   Wind: SW 4.6 m/s
Wind: SW 4.6 m/s
Temperature: 2°C
Wind Chill: -2°C
Dew Point: 1°C
Humidity: 93%
Barometer: 1011 hPa
Clouds: Overcast
Visibility: 8 km
Cloud details: Mostly Cloudy 500 ft,
Overcast 600 ft
EHBK 030255Z AUTO 23009KT 8000 BKN005 OVC006 02/01 Q1011
ELLX - Luxemburg
Updated: 03-12-2021 03:50
Overcast  
Overcast  
   Wind: WSW 3.1 m/s
Wind: WSW 3.1 m/s
Temperature: 0°C
Wind Chill: -3°C
Dew Point: -1°C
Humidity: 93%
Barometer: 1012 hPa
Clouds: Overcast
Visibility: More than 10 km
Cloud details: Overcast 3000 ft
ELLX 030250Z 25006KT 9999 OVC030 M00/M01 Q1012 NOSIG
EBOS - Oostende
Updated: 03-12-2021 03:50
Mostly Cloudy  
Mostly Cloudy  
   Wind: SW 4.1 m/s
Wind: SW 4.1 m/s
Temperature: 1°C
Wind Chill: -3°C
Dew Point: -1°C
Humidity: 87%
Barometer: 1012 hPa
Clouds: Mostly Cloudy
Visibility: More than 10 km
Cloud details: Few Clouds 2300 ft,
Mostly Cloudy 2500 ft
EBOS 030250Z 22008KT 9999 FEW023 BKN025 01/M01 Q1012 NOSIG

Script developed by  Saratoga-weather.org Adapted for the template by  Weerstation Leuven

You find our weather info also at:

Weather Underground

Equipment we use:

Weather-station
Davis Vantage Vue

Weather-program
WeatherCat

Provider
one.com

Davis Vantage Vue

WeatherCat

one.com